Time;durP1;ratioP1;P1;durP2;ratioP2;P2;SDS_P1;SDS_P2;PMS_P1;PMS_P2;Temp;Humidity;BMP_temperature;BMP_pressure;BME280_temperature;BME280_humidity;BME280_pressure;Samples;Min_cycle;Max_cycle;Signal;HPM_P1;HPM_P2
2022/08/01 00:00:00;;;;;;;2.65;2.08;;;;;;;24.79;49.52;95579.66;4889904;29;20222;-81
2022/08/01 00:02:27;;;;;;;4.75;2.00;;;;;;;24.76;49.53;95585.47;4907143;29;20210;-80
2022/08/01 00:04:55;;;;;;;2.03;1.90;;;;;;;24.69;49.64;95581.50;4908405;29;20242;-80
2022/08/01 00:07:23;;;;;;;2.10;1.95;;;;;;;24.64;50.25;95594.66;4891601;29;20377;-80
2022/08/01 00:09:52;;;;;;;3.40;2.10;;;;;;;24.63;49.73;95591.25;4890082;29;20299;-81
2022/08/01 00:12:19;;;;;;;4.07;2.10;;;;;;;24.62;49.90;95594.97;4904049;29;20447;-81
2022/08/01 00:14:46;;;;;;;2.55;2.20;;;;;;;24.59;49.92;95600.75;4906486;29;20230;-81
2022/08/01 00:17:13;;;;;;;2.20;2.10;;;;;;;24.55;49.53;95594.44;4890588;29;20235;-81
2022/08/01 00:19:40;;;;;;;6.80;2.20;;;;;;;24.52;50.00;95591.53;4886879;29;20211;-81
2022/08/01 00:22:06;;;;;;;3.42;2.15;;;;;;;24.50;49.86;95597.06;4899303;29;20195;-81
2022/08/01 00:24:32;;;;;;;3.72;2.03;;;;;;;24.51;49.82;95600.47;4887797;29;20810;-81
2022/08/01 00:26:59;;;;;;;2.45;2.20;;;;;;;24.45;49.63;95605.72;4900618;29;20195;-81
2022/08/01 00:29:25;;;;;;;2.08;1.98;;;;;;;24.33;49.61;95601.78;4886146;29;20211;-81
2022/08/01 00:31:51;;;;;;;2.20;2.00;;;;;;;24.27;49.83;95602.81;4896665;29;20675;-82
2022/08/01 00:34:19;;;;;;;2.42;2.10;;;;;;;24.29;49.61;95606.78;4904547;29;20235;-82
2022/08/01 00:36:46;;;;;;;2.10;1.90;;;;;;;24.19;49.58;95601.50;4888423;29;20243;-81
2022/08/01 00:39:12;;;;;;;2.35;1.90;;;;;;;24.27;49.55;95605.47;4886107;29;20695;-81
2022/08/01 00:41:39;;;;;;;3.42;2.15;;;;;;;24.28;49.62;95599.94;4900012;29;20231;-82
2022/08/01 00:44:06;;;;;;;1.88;1.77;;;;;;;24.27;49.79;95602.81;4904608;29;20735;-81
2022/08/01 00:46:33;;;;;;;2.20;2.00;;;;;;;24.25;49.74;95603.09;4892024;29;20632;-81
2022/08/01 00:49:00;;;;;;;2.30;2.10;;;;;;;24.27;49.56;95598.34;4902344;29;20203;-81
2022/08/01 00:51:28;;;;;;;2.47;2.10;;;;;;;24.31;49.74;95606.50;4891418;29;20211;-81
2022/08/01 00:53:55;;;;;;;3.60;1.92;;;;;;;24.33;49.56;95599.94;4886806;29;20268;-81
2022/08/01 00:56:26;;;;;;;3.72;2.25;;;;;;;24.31;49.61;95596.78;4896434;29;20226;-82
2022/08/01 00:58:53;;;;;;;2.28;2.08;;;;;;;24.29;49.55;95604.16;4904290;29;20211;-81
2022/08/01 01:01:20;;;;;;;1.95;1.85;;;;;;;24.24;49.70;95603.38;4886056;29;20233;-82
2022/08/01 01:03:47;;;;;;;4.90;2.20;;;;;;;24.21;49.62;95595.97;4893098;29;20230;-82
2022/08/01 01:06:26;;;;;;;2.95;1.90;;;;;;;24.20;49.67;95597.03;4889057;29;20219;-81
2022/08/01 01:09:07;;;;;;;2.10;1.90;;;;;;;24.20;49.45;95597.81;4886590;29;20211;-81
2022/08/01 01:11:45;;;;;;;2.47;2.28;;;;;;;24.17;50.04;95600.97;4891118;29;20896;-82
2022/08/01 01:14:20;;;;;;;2.05;1.95;;;;;;;24.13;49.96;95610.41;4903728;29;20264;-81
2022/08/01 01:16:47;;;;;;;2.90;2.10;;;;;;;24.08;50.20;95607.75;4885142;29;20227;-82
2022/08/01 01:19:21;;;;;;;4.72;2.38;;;;;;;24.06;50.21;95610.66;4884583;29;20220;-81
2022/08/01 01:22:10;;;;;;;2.30;1.90;;;;;;;24.06;50.14;95615.13;4885410;29;20254;-81
2022/08/01 01:24:45;;;;;;;3.08;2.15;;;;;;;24.08;49.95;95613.81;4901721;29;20226;-81
2022/08/01 01:27:19;;;;;;;2.15;2.00;;;;;;;24.10;49.79;95624.88;4905735;29;20580;-81
2022/08/01 01:29:51;;;;;;;1.95;1.85;;;;;;;24.10;49.91;95616.19;4888646;29;20202;-81
2022/08/01 01:32:23;;;;;;;2.30;2.20;;;;;;;24.09;49.60;95615.41;4885878;29;20217;-80
2022/08/01 01:34:53;;;;;;;3.70;2.22;;;;;;;24.02;50.06;95614.88;4898428;29;20231;-81
2022/08/01 01:37:22;;;;;;;2.30;2.10;;;;;;;23.98;50.20;95616.44;4886778;29;20752;-81
2022/08/01 01:39:52;;;;;;;2.63;2.00;;;;;;;23.89;50.13;95615.34;4902315;29;20207;-81
2022/08/01 01:42:20;;;;;;;2.58;2.10;;;;;;;23.90;50.37;95622.19;4904478;29;20266;-81
2022/08/01 01:44:50;;;;;;;1.90;1.80;;;;;;;23.90;50.14;95619.56;4893072;29;20218;-82
2022/08/01 01:47:17;;;;;;;3.05;2.08;;;;;;;23.86;50.32;95613.25;4905264;29;20207;-81
2022/08/01 01:49:47;;;;;;;2.65;2.10;;;;;;;23.84;50.17;95614.56;4889821;29;20271;-81
2022/08/01 01:52:14;;;;;;;3.05;2.13;;;;;;;23.80;50.46;95613.50;4898091;29;20231;-82
2022/08/01 01:54:51;;;;;;;2.42;1.92;;;;;;;23.75;50.57;95619.53;4899430;29;20262;-81
2022/08/01 01:57:19;;;;;;;2.15;2.00;;;;;;;23.64;50.87;95623.97;4889764;29;20229;-81
2022/08/01 01:59:48;;;;;;;4.75;2.00;;;;;;;23.57;50.92;95618.16;4900032;29;20792;-81
2022/08/01 02:02:18;;;;;;;2.75;2.20;;;;;;;23.63;50.74;95621.59;4883924;29;20211;-81
2022/08/01 02:04:47;;;;;;;2.60;2.40;;;;;;;23.66;50.66;95623.72;4898840;29;20231;-81
2022/08/01 02:07:20;;;;;;;3.40;2.30;;;;;;;23.61;50.71;95621.06;4903773;29;20301;-81
2022/08/01 02:09:47;;;;;;;3.97;2.00;;;;;;;23.62;50.82;95625.28;4901970;29;20207;-81
2022/08/01 02:12:17;;;;;;;2.42;2.22;;;;;;;23.56;50.85;95624.47;4903297;29;20687;-81
2022/08/01 02:14:46;;;;;;;3.38;2.22;;;;;;;23.62;50.71;95628.69;4895264;29;20231;-82
2022/08/01 02:17:16;;;;;;;2.35;2.15;;;;;;;23.62;50.86;95623.44;4884278;29;20234;-81
2022/08/01 02:19:44;;;;;;;2.30;2.10;;;;;;;23.57;50.77;95633.13;4885186;29;20249;-82
2022/08/01 02:22:14;;;;;;;2.00;1.90;;;;;;;23.53;50.78;95630.22;4893320;29;20280;-82
2022/08/01 02:24:50;;;;;;;4.10;2.42;;;;;;;23.56;50.67;95624.47;4894115;29;20720;-81
2022/08/01 02:27:22;;;;;;;2.20;1.95;;;;;;;23.53;50.90;95626.81;4884588;29;20207;-81
2022/08/01 02:29:55;;;;;;;2.25;2.05;;;;;;;23.49;51.07;95633.59;4885188;29;20204;-81
2022/08/01 02:32:27;;;;;;;2.45;2.25;;;;;;;23.49;50.84;95628.31;4883854;29;20216;-81
2022/08/01 02:34:58;;;;;;;2.65;2.17;;;;;;;23.50;50.80;95633.31;4885235;29;20302;-81
2022/08/01 02:37:27;;;;;;;2.50;2.15;;;;;;;23.53;50.68;95634.69;4884024;29;20228;-82
2022/08/01 02:39:55;;;;;;;2.28;2.13;;;;;;;23.48;50.95;95632.00;4895695;29;20207;-81
2022/08/01 02:42:25;;;;;;;3.33;2.40;;;;;;;23.42;50.96;95626.75;4902407;29;20235;-81
2022/08/01 02:44:54;;;;;;;1.90;1.80;;;;;;;23.42;50.55;95632.00;4890365;29;20227;-81
2022/08/01 02:47:23;;;;;;;3.08;2.17;;;;;;;23.43;50.92;95638.03;4900168;29;20202;-82
2022/08/01 02:49:52;;;;;;;2.40;2.20;;;;;;;23.40;50.99;95633.28;4892579;29;20203;-81
2022/08/01 02:52:24;;;;;;;3.75;2.35;;;;;;;23.42;50.64;95639.09;4883690;29;20207;-81
2022/08/01 02:54:54;;;;;;;2.20;2.00;;;;;;;23.40;50.71;95635.91;4892798;29;20219;-81
2022/08/01 02:57:22;;;;;;;2.28;2.08;;;;;;;23.39;50.41;95636.97;4919030;29;20218;-82
2022/08/01 02:59:50;;;;;;;2.20;2.00;;;;;;;23.31;50.58;95640.06;4922851;29;20199;-82
2022/08/01 03:02:18;;;;;;;2.63;2.15;;;;;;;23.35;50.20;95636.69;4885115;29;20208;-82
2022/08/01 03:04:45;;;;;;;2.25;2.13;;;;;;;23.33;50.62;95644.03;4899970;29;20251;-81
2022/08/01 03:07:13;;;;;;;2.20;2.10;;;;;;;23.34;50.44;95637.72;4904146;29;20273;-82
2022/08/01 03:09:44;;;;;;;2.70;2.00;;;;;;;23.37;50.29;95641.69;4890757;29;20211;-81
2022/08/01 03:12:16;;;;;;;2.17;1.98;;;;;;;23.33;50.31;95645.84;4885417;29;20633;-82
2022/08/01 03:14:43;;;;;;;2.45;2.25;;;;;;;23.36;50.14;95640.09;4896746;29;20245;-81
2022/08/01 03:17:11;;;;;;;3.13;1.98;;;;;;;23.28;50.31;95646.66;4896557;29;20215;-81
2022/08/01 03:19:40;;;;;;;2.67;2.15;;;;;;;23.24;50.39;95642.16;4884170;29;20291;-81
2022/08/01 03:22:09;;;;;;;4.40;2.05;;;;;;;23.21;50.71;95643.44;4898675;29;20289;-82
2022/08/01 03:24:37;;;;;;;3.92;2.35;;;;;;;23.19;50.50;95645.53;4902030;29;20235;-81
2022/08/01 03:27:07;;;;;;;2.28;2.13;;;;;;;23.16;50.52;95651.28;4890430;29;20255;-82
2022/08/01 03:29:34;;;;;;;2.80;2.17;;;;;;;23.20;50.50;95646.31;4898887;29;20206;-82
2022/08/01 03:32:01;;;;;;;2.58;2.20;;;;;;;23.25;50.56;95646.34;4905661;29;20234;-81
2022/08/01 03:34:28;;;;;;;2.35;2.15;;;;;;;23.13;50.60;95653.63;4889738;29;20247;-82
2022/08/01 03:37:00;;;;;;;2.25;2.15;;;;;;;23.14;50.48;95648.13;4887636;29;20276;-81
2022/08/01 03:39:32;;;;;;;4.47;2.63;;;;;;;23.09;50.93;95656.00;4901651;29;20222;-82
2022/08/01 03:42:02;;;;;;;2.22;2.10;;;;;;;23.13;51.31;95658.88;4900530;29;20214;-82
2022/08/01 03:44:34;;;;;;;2.50;2.30;;;;;;;23.13;51.09;95657.03;4885620;29;20232;-82
2022/08/01 03:47:05;;;;;;;2.40;2.20;;;;;;;23.10;50.92;95657.53;4882006;29;20752;-82
2022/08/01 03:49:34;;;;;;;2.50;2.30;;;;;;;23.10;51.00;95657.53;4883844;29;20203;-82
2022/08/01 03:52:03;;;;;;;2.97;2.45;;;;;;;23.04;51.08;95663.81;4885719;29;20214;-82
2022/08/01 03:54:34;;;;;;;2.88;2.10;;;;;;;23.01;51.32;95672.22;4887202;29;20223;-82
2022/08/01 03:57:01;;;;;;;5.93;2.58;;;;;;;22.99;51.35;95666.41;4885673;29;20258;-82
2022/08/01 03:59:31;;;;;;;2.35;2.10;;;;;;;22.93;51.33;95668.19;4885265;29;20275;-82
2022/08/01 04:01:59;;;;;;;2.60;2.40;;;;;;;22.94;51.14;95674.25;4903080;29;20274;-82
2022/08/01 04:04:26;;;;;;;3.33;2.20;;;;;;;22.89;51.59;95674.22;4898573;29;20230;-82
2022/08/01 04:06:54;;;;;;;2.63;2.20;;;;;;;22.86;51.55;95678.16;4904382;29;20210;-82
2022/08/01 04:09:20;;;;;;;4.50;2.30;;;;;;;22.87;51.70;95678.94;4902606;29;20215;-82
2022/08/01 04:11:47;;;;;;;3.75;2.17;;;;;;;22.82;51.91;95671.81;4890842;29;20203;-82
2022/08/01 04:14:13;;;;;;;3.22;2.20;;;;;;;22.86;51.83;95677.34;4902016;29;20245;-82
2022/08/01 04:16:41;;;;;;;2.72;2.15;;;;;;;22.88;51.66;95677.91;4888238;29;20267;-81
2022/08/01 04:19:08;;;;;;;2.30;2.10;;;;;;;22.85;51.86;95673.94;4884640;29;20207;-81
2022/08/01 04:21:36;;;;;;;2.30;2.20;;;;;;;22.83;51.85;95683.91;4889270;29;20290;-82
2022/08/01 04:24:07;;;;;;;2.40;2.20;;;;;;;22.80;52.12;95694.09;4913300;29;20659;-81
2022/08/01 04:26:36;;;;;;;2.30;2.10;;;;;;;22.82;52.06;95694.66;4918090;29;20223;-82
2022/08/01 04:29:05;;;;;;;2.40;2.22;;;;;;;22.80;52.11;95696.72;4891418;29;20211;-82
2022/08/01 04:31:33;;;;;;;3.03;2.20;;;;;;;22.80;52.16;95697.53;4889300;29;20222;-81
2022/08/01 04:34:05;;;;;;;2.30;2.10;;;;;;;22.84;52.33;95697.81;4900843;29;20265;-82
2022/08/01 04:36:35;;;;;;;4.25;2.40;;;;;;;22.88;52.02;95701.53;4908046;29;20230;-82
2022/08/01 04:39:04;;;;;;;3.67;2.20;;;;;;;22.91;51.83;95708.88;4899689;29;20210;-82
2022/08/01 04:41:32;;;;;;;7.75;2.28;;;;;;;22.98;51.72;95698.97;4888026;29;20203;-82
2022/08/01 04:43:59;;;;;;;4.72;2.38;;;;;;;22.91;51.96;95707.06;4892655;29;20231;-81
2022/08/01 04:46:28;;;;;;;2.53;2.33;;;;;;;22.98;51.71;95701.59;4904064;29;20234;-81
2022/08/01 04:48:55;;;;;;;2.20;2.10;;;;;;;22.94;51.72;95708.38;4905212;29;20210;-80
2022/08/01 04:51:24;;;;;;;2.50;2.30;;;;;;;22.91;51.81;95711.50;4898083;29;20670;-80
2022/08/01 04:53:51;;;;;;;2.83;2.20;;;;;;;22.91;51.82;95712.31;4894553;29;20238;-81
2022/08/01 04:56:18;;;;;;;2.28;2.03;;;;;;;22.94;51.62;95711.00;4901300;29;20226;-81
2022/08/01 04:58:45;;;;;;;5.82;2.47;;;;;;;22.99;51.57;95714.47;4901940;29;20282;-80
2022/08/01 05:01:11;;;;;;;2.22;2.03;;;;;;;23.02;51.78;95702.69;4893803;29;20214;-81
2022/08/01 05:03:38;;;;;;;3.92;2.30;;;;;;;23.08;51.46;95709.56;4900998;29;20241;-81
2022/08/01 05:06:04;;;;;;;2.35;2.15;;;;;;;23.05;51.32;95713.47;4900562;29;20227;-81
2022/08/01 05:08:32;;;;;;;2.70;2.30;;;;;;;23.06;51.35;95715.06;4901010;29;20606;-80
2022/08/01 05:10:59;;;;;;;3.88;2.30;;;;;;;23.08;51.41;95723.50;4902718;29;20207;-81
2022/08/01 05:13:25;;;;;;;3.45;2.30;;;;;;;23.12;51.44;95718.50;4901111;29;20238;-80
2022/08/01 05:15:52;;;;;;;3.30;2.20;;;;;;;23.14;51.33;95719.03;4901963;29;20230;-81
2022/08/01 05:18:18;;;;;;;2.50;2.30;;;;;;;23.15;51.61;95719.84;4901321;29;20270;-81
2022/08/01 05:20:45;;;;;;;4.00;2.20;;;;;;;23.23;51.49;95722.81;4902171;29;20226;-81
2022/08/01 05:23:12;;;;;;;2.40;2.20;;;;;;;23.30;51.27;95719.94;4901751;29;20235;-81
2022/08/01 05:25:39;;;;;;;3.00;2.20;;;;;;;23.35;51.09;95727.88;4901950;29;20234;-81
2022/08/01 05:28:06;;;;;;;4.03;2.10;;;;;;;23.27;51.37;95726.50;4901155;29;20703;-81
2022/08/01 05:30:32;;;;;;;5.97;2.28;;;;;;;23.23;51.56;95729.88;4900466;29;20210;-82
2022/08/01 05:32:59;;;;;;;4.90;2.30;;;;;;;23.28;51.41;95729.94;4900021;29;20259;-81
2022/08/01 05:35:25;;;;;;;2.15;2.05;;;;;;;23.31;51.34;95729.41;4900977;29;20255;-82
2022/08/01 05:37:52;;;;;;;3.85;2.70;;;;;;;23.37;51.23;95733.66;4901456;29;20702;-82
2022/08/01 05:40:18;;;;;;;2.20;2.10;;;;;;;23.47;51.37;95733.75;4901024;29;20206;-81
2022/08/01 05:42:46;;;;;;;4.28;3.88;;;;;;;23.46;51.02;95732.16;4898763;29;20238;-81
2022/08/01 05:45:12;;;;;;;3.50;3.20;;;;;;;23.47;51.26;95743.47;4901050;29;20229;-81
2022/08/01 05:47:39;;;;;;;3.80;3.00;;;;;;;23.49;51.06;95743.97;4901334;29;20254;-81
2022/08/01 05:50:06;;;;;;;2.42;2.22;;;;;;;23.51;50.94;95741.88;4894325;29;20223;-82
2022/08/01 05:52:32;;;;;;;2.47;2.28;;;;;;;23.60;50.86;95740.41;4884879;29;20628;-82
2022/08/01 05:54:59;;;;;;;4.15;2.30;;;;;;;23.71;50.74;95747.28;4886319;29;20226;-81
2022/08/01 05:57:25;;;;;;;2.38;2.20;;;;;;;23.82;51.00;95750.78;4904317;29;20223;-82
2022/08/01 05:59:53;;;;;;;2.97;2.25;;;;;;;23.86;50.37;95746.59;4898634;29;20222;-81
2022/08/01 06:02:19;;;;;;;2.50;2.30;;;;;;;23.93;50.50;95745.31;4886204;29;20222;-81
2022/08/01 06:04:46;;;;;;;3.55;2.20;;;;;;;23.91;50.51;95742.13;4891932;29;20203;-81
2022/08/01 06:07:12;;;;;;;2.22;2.03;;;;;;;24.00;49.99;95745.88;4892075;29;20195;-81
2022/08/01 06:09:39;;;;;;;2.60;2.40;;;;;;;23.92;49.86;95742.94;4903902;29;20203;-83
2022/08/01 06:12:06;;;;;;;2.97;2.33;;;;;;;23.92;49.65;95748.97;4909795;29;20210;-82
2022/08/01 06:14:34;;;;;;;3.17;2.35;;;;;;;23.85;49.47;95743.19;4912815;29;20226;-82
2022/08/01 06:17:02;;;;;;;2.40;2.20;;;;;;;23.93;49.45;95752.41;4901169;29;20289;-82
2022/08/01 06:19:28;;;;;;;2.38;2.17;;;;;;;24.02;49.43;95758.78;4902067;29;20285;-81
2022/08/01 06:21:54;;;;;;;2.38;2.17;;;;;;;24.20;49.43;95755.69;4901557;29;20214;-81
2022/08/01 06:24:22;;;;;;;3.10;2.30;;;;;;;24.21;49.45;95759.91;4914423;29;20669;-83
2022/08/01 06:26:49;;;;;;;3.45;2.63;;;;;;;24.14;48.92;95756.72;4911482;29;20242;-81
2022/08/01 06:29:15;;;;;;;2.67;2.40;;;;;;;24.18;49.03;95757.78;4901896;29;20214;-81
2022/08/01 06:31:42;;;;;;;4.90;2.65;;;;;;;24.16;48.80;95759.88;4899428;29;20207;-81
2022/08/01 06:34:10;;;;;;;4.40;2.30;;;;;;;24.25;49.11;95752.28;4901101;29;20234;-81
2022/08/01 06:36:36;;;;;;;2.70;2.50;;;;;;;24.33;48.96;95762.34;4901479;29;20735;-81
2022/08/01 06:39:03;;;;;;;2.50;2.30;;;;;;;24.38;48.88;95765.78;4902866;29;20225;-82
2022/08/01 06:41:29;;;;;;;2.58;2.38;;;;;;;24.38;48.74;95765.78;4900247;29;20222;-81
2022/08/01 06:43:56;;;;;;;3.85;2.60;;;;;;;24.32;48.61;95761.53;4894164;29;20235;-81
2022/08/01 06:46:22;;;;;;;3.72;3.42;;;;;;;24.42;48.96;95766.84;4883219;29;20223;-81
2022/08/01 06:48:48;;;;;;;4.57;3.78;;;;;;;24.45;49.03;95760.25;4882799;29;20207;-81
2022/08/01 06:51:19;;;;;;;3.72;2.80;;;;;;;24.52;49.44;95762.66;4884314;29;20733;-81
2022/08/01 06:53:46;;;;;;;3.53;2.90;;;;;;;24.48;48.42;95758.94;4884607;29;20252;-81
2022/08/01 06:56:12;;;;;;;3.17;2.88;;;;;;;24.53;49.04;95769.50;4885816;29;20254;-81
2022/08/01 06:58:38;;;;;;;3.40;3.10;;;;;;;24.58;49.36;95769.53;4891440;29;20231;-81
2022/08/01 07:01:06;;;;;;;2.83;2.60;;;;;;;24.55;48.88;95770.81;4918106;29;20208;-81
2022/08/01 07:03:33;;;;;;;4.85;2.60;;;;;;;24.58;48.59;95765.03;4913124;29;20230;-81
2022/08/01 07:06:00;;;;;;;2.75;2.55;;;;;;;24.72;48.69;95765.31;4901628;29;20228;-82
2022/08/01 07:08:27;;;;;;;3.45;2.65;;;;;;;24.67;48.24;95765.31;4888216;29;20195;-81
2022/08/01 07:10:55;;;;;;;4.90;2.50;;;;;;;24.66;48.48;95756.63;4902107;29;20671;-81
2022/08/01 07:13:24;;;;;;;6.10;2.78;;;;;;;24.70;48.75;95767.44;4890996;29;20291;-81
2022/08/01 07:15:51;;;;;;;3.10;2.85;;;;;;;24.67;48.50;95765.31;4883710;29;20227;-81
2022/08/01 07:18:18;;;;;;;2.97;2.60;;;;;;;24.72;49.52;95765.31;4895178;29;20689;-81
2022/08/01 07:20:45;;;;;;;2.90;2.50;;;;;;;24.85;49.25;95759.53;4899616;29;20267;-81
2022/08/01 07:23:12;;;;;;;2.80;2.60;;;;;;;24.97;48.69;95764.59;4890076;29;20230;-81
2022/08/01 07:25:40;;;;;;;2.70;2.50;;;;;;;25.13;48.09;95755.66;4905049;29;20588;-81
2022/08/01 07:28:06;;;;;;;3.65;2.63;;;;;;;25.32;48.67;95755.91;4904447;29;20254;-81
2022/08/01 07:30:33;;;;;;;2.90;2.60;;;;;;;25.48;48.25;95754.81;4904351;29;20207;-81
2022/08/01 07:32:59;;;;;;;2.83;2.53;;;;;;;25.66;48.17;95753.50;4903188;29;20226;-80
2022/08/01 07:35:26;;;;;;;2.90;2.70;;;;;;;25.79;47.49;95745.03;4902773;29;20758;-80
2022/08/01 07:37:53;;;;;;;3.00;2.70;;;;;;;25.85;46.94;95751.09;4885939;29;20290;-80
2022/08/01 07:40:20;;;;;;;3.03;2.70;;;;;;;25.91;46.81;95748.16;4891303;29;20296;-80
2022/08/01 07:42:48;;;;;;;3.00;2.70;;;;;;;25.91;46.47;95747.38;4903256;29;20242;-80
2022/08/01 07:45:15;;;;;;;5.35;2.85;;;;;;;25.98;46.51;95756.56;4893339;29;20439;-81
2022/08/01 07:47:41;;;;;;;3.20;2.90;;;;;;;26.05;46.62;95743.88;4904191;29;20404;-80
2022/08/01 07:50:09;;;;;;;2.83;2.63;;;;;;;26.09;46.13;95754.69;4897515;29;20511;-80
2022/08/01 07:52:35;;;;;;;2.90;2.70;;;;;;;26.11;46.24;95744.66;4900028;29;20205;-80
2022/08/01 07:55:02;;;;;;;2.90;2.70;;;;;;;26.15;46.22;95743.06;4901028;29;20243;-80
2022/08/01 07:57:28;;;;;;;3.58;2.45;;;;;;;26.07;46.66;95754.19;4885501;29;20211;-80
2022/08/01 07:59:56;;;;;;;2.70;2.38;;;;;;;25.97;46.50;95754.22;4900908;29;20230;-80
2022/08/01 08:02:23;;;;;;;3.05;2.80;;;;;;;26.00;46.61;95756.31;4895498;29;20200;-80
2022/08/01 08:04:49;;;;;;;3.20;2.70;;;;;;;25.91;46.69;95755.28;4886653;29;20219;-80
2022/08/01 08:07:16;;;;;;;3.90;2.63;;;;;;;25.90;47.45;95753.72;4891453;29;20219;-80
2022/08/01 08:09:42;;;;;;;3.25;2.70;;;;;;;25.72;46.71;95749.81;4903116;29;20269;-80
2022/08/01 08:12:09;;;;;;;3.15;2.88;;;;;;;25.78;47.26;95754.81;4896808;29;20196;-80
2022/08/01 08:14:38;;;;;;;3.13;2.80;;;;;;;25.86;47.12;95752.66;4891380;29;20230;-80
2022/08/01 08:17:05;;;;;;;2.75;2.55;;;;;;;25.92;47.37;95757.66;4900264;29;20259;-81
2022/08/01 08:19:33;;;;;;;3.15;2.58;;;;;;;26.06;47.12;95750.75;4884931;29;20227;-80
2022/08/01 08:21:59;;;;;;;2.60;2.40;;;;;;;26.15;46.88;95746.50;4901775;29;20221;-81
2022/08/01 08:24:27;;;;;;;3.00;2.75;;;;;;;26.29;46.97;95743.25;4884427;29;20268;-80
2022/08/01 08:26:56;;;;;;;3.88;2.67;;;;;;;26.40;46.35;95750.09;4898022;29;20223;-80
2022/08/01 08:29:23;;;;;;;3.05;2.85;;;;;;;26.52;46.70;95739.22;4903118;29;20199;-80
2022/08/01 08:31:50;;;;;;;2.88;2.60;;;;;;;26.59;46.89;95751.03;4891636;29;20207;-80
2022/08/01 08:34:18;;;;;;;2.92;2.70;;;;;;;26.63;46.36;95743.38;4893500;29;20247;-80
2022/08/01 08:36:44;;;;;;;2.95;2.75;;;;;;;26.66;45.97;95745.47;4883938;29;20736;-80
2022/08/01 08:39:11;;;;;;;5.10;2.80;;;;;;;26.73;45.85;95738.81;4894482;29;20223;-81
2022/08/01 08:41:37;;;;;;;2.90;2.70;;;;;;;26.77;45.84;95749.59;4903308;29;20218;-81
2022/08/01 08:44:05;;;;;;;4.30;2.60;;;;;;;26.75;45.54;95747.22;4892212;29;20727;-81
2022/08/01 08:46:33;;;;;;;5.18;2.70;;;;;;;26.60;45.54;95744.69;4885742;29;20275;-81
2022/08/01 08:49:01;;;;;;;2.63;2.42;;;;;;;26.61;45.79;95745.50;4895003;29;20226;-81
2022/08/01 08:51:32;;;;;;;2.72;2.53;;;;;;;26.68;46.17;95733.56;4901419;29;20213;-80
2022/08/01 08:53:59;;;;;;;5.68;5.20;;;;;;;26.80;45.65;95727.94;4892522;29;20322;-80
2022/08/01 08:56:29;;;;;;;3.38;2.70;;;;;;;26.77;45.29;95734.53;4886789;29;20241;-80
2022/08/01 08:58:56;;;;;;;2.53;2.30;;;;;;;27.00;45.58;95733.09;4891737;29;20819;-80
2022/08/01 09:01:23;;;;;;;2.80;2.38;;;;;;;27.05;45.21;95737.56;4885139;29;20732;-80
2022/08/01 09:03:49;;;;;;;4.82;2.63;;;;;;;27.19;44.95;95735.84;4905710;29;20234;-80
2022/08/01 09:06:16;;;;;;;2.58;2.38;;;;;;;27.24;44.51;95738.44;4903464;29;20231;-80
2022/08/01 09:08:44;;;;;;;2.55;2.35;;;;;;;27.32;44.29;95734.44;4918170;29;20233;-80
2022/08/01 09:11:10;;;;;;;4.20;2.85;;;;;;;27.53;45.10;95733.13;4918595;29;20210;-80
2022/08/01 09:13:37;;;;;;;3.33;2.40;;;;;;;27.73;44.75;95730.31;4920904;29;20266;-80
2022/08/01 09:16:06;;;;;;;2.63;2.42;;;;;;;27.78;44.29;95732.13;4922728;29;20718;-81
2022/08/01 09:18:34;;;;;;;3.65;2.63;;;;;;;27.78;43.65;95737.41;4922302;29;20229;-81
2022/08/01 09:21:16;;;;;;;2.70;2.50;;;;;;;27.76;43.88;95736.91;4905916;29;20231;-80
2022/08/01 09:23:46;;;;;;;2.75;2.55;;;;;;;27.99;43.99;95738.78;4903000;29;20235;-81
2022/08/01 09:26:13;;;;;;;2.67;2.30;;;;;;;27.97;42.29;95737.47;4904623;29;20227;-81
2022/08/01 09:28:41;;;;;;;2.75;2.50;;;;;;;28.04;42.33;95741.38;4905330;29;20284;-81
2022/08/01 09:31:10;;;;;;;2.35;2.15;;;;;;;28.30;42.13;95739.19;4904366;29;20265;-81
2022/08/01 09:33:49;;;;;;;4.47;2.10;;;;;;;28.30;41.69;95730.47;4904515;29;20227;-81
2022/08/01 09:36:15;;;;;;;2.28;2.10;;;;;;;28.45;41.88;95738.25;4905008;29;20380;-80
2022/08/01 09:38:42;;;;;;;2.10;1.90;;;;;;;28.43;41.44;95735.88;4904322;29;20226;-80
2022/08/01 09:41:11;;;;;;;2.03;1.83;;;;;;;28.50;41.41;95738.16;4904018;29;20206;-81
2022/08/01 09:43:40;;;;;;;2.95;1.70;;;;;;;28.45;40.44;95728.44;4905579;29;20234;-81
2022/08/01 09:46:11;;;;;;;1.90;1.80;;;;;;;28.59;40.60;95733.00;4906973;29;20299;-80
2022/08/01 09:48:39;;;;;;;2.40;2.10;;;;;;;28.54;41.22;95732.00;4907366;29;20249;-81
2022/08/01 09:51:07;;;;;;;2.75;1.98;;;;;;;28.71;41.69;95733.34;4905120;29;20252;-81
2022/08/01 09:53:45;;;;;;;6.63;6.07;;;;;;;28.83;40.89;95737.19;4884478;29;20219;-81
2022/08/01 09:56:14;;;;;;;2.40;2.20;;;;;;;28.84;40.51;95725.50;4897537;29;20223;-81
2022/08/01 09:58:55;;;;;;;3.70;2.17;;;;;;;28.78;41.76;95729.28;4904799;29;20227;-81
2022/08/01 10:01:26;;;;;;;3.47;2.20;;;;;;;28.46;41.46;95723.91;4902808;29;20206;-81
2022/08/01 10:04:07;;;;;;;1.83;1.70;;;;;;;28.45;42.00;95725.78;4897746;29;20231;-80
2022/08/01 10:06:33;;;;;;;4.75;1.90;;;;;;;28.75;41.44;95721.09;4885467;29;20226;-81
2022/08/01 10:08:59;;;;;;;2.17;2.08;;;;;;;28.54;41.56;95718.75;4900830;29;20195;-80
2022/08/01 10:11:29;;;;;;;3.58;2.00;;;;;;;28.51;41.59;95721.19;4901511;29;20222;-81
2022/08/01 10:13:56;;;;;;;2.17;1.77;;;;;;;28.67;41.31;95725.19;4888516;29;20234;-80
2022/08/01 10:16:24;;;;;;;1.92;1.80;;;;;;;28.75;40.37;95715.81;4889159;29;20223;-81
2022/08/01 10:18:51;;;;;;;5.22;2.08;;;;;;;28.79;40.39;95707.00;4883218;29;20228;-81
2022/08/01 10:21:18;;;;;;;2.58;1.70;;;;;;;29.04;40.19;95719.09;4894008;29;20206;-80
2022/08/01 10:23:46;;;;;;;2.30;1.80;;;;;;;28.91;40.40;95719.03;4898094;29;20231;-80
2022/08/01 10:26:14;;;;;;;2.88;1.80;;;;;;;29.07;40.03;95710.53;4880482;29;20258;-80
2022/08/01 10:28:48;;;;;;;2.22;1.90;;;;;;;29.42;40.01;95708.41;4895828;29;20214;-80
2022/08/01 10:31:15;;;;;;;1.88;1.77;;;;;;;29.38;39.15;95707.38;4885035;29;20676;-80
2022/08/01 10:33:42;;;;;;;2.03;1.90;;;;;;;29.53;39.00;95710.56;4879072;29;20235;-80
2022/08/01 10:36:09;;;;;;;4.75;1.83;;;;;;;29.63;39.50;95704.31;4898278;29;20250;-80
2022/08/01 10:38:39;;;;;;;2.33;1.70;;;;;;;29.90;39.26;95714.13;4897143;29;20230;-80
2022/08/01 10:41:06;;;;;;;1.80;1.70;;;;;;;29.81;38.25;95699.97;4888509;29;20260;-81
2022/08/01 10:43:32;;;;;;;2.13;1.98;;;;;;;29.87;38.35;95696.91;4880492;29;20235;-81
2022/08/01 10:46:01;;;;;;;2.63;2.33;;;;;;;29.88;37.93;95695.84;4886247;29;20282;-80
2022/08/01 10:48:34;;;;;;;1.98;1.88;;;;;;;29.73;38.64;95690.81;4902072;29;20203;-80
2022/08/01 10:51:04;;;;;;;2.15;1.95;;;;;;;29.87;38.74;95696.13;4894232;29;20381;-80
2022/08/01 10:53:32;;;;;;;1.75;1.65;;;;;;;29.93;38.88;95696.81;4919593;29;20242;-80
2022/08/01 10:56:02;;;;;;;2.67;1.90;;;;;;;29.67;38.21;95680.59;4908360;29;20230;-80
2022/08/01 10:58:32;;;;;;;2.75;1.70;;;;;;;29.63;38.91;95692.91;4899445;29;20215;-80
2022/08/01 11:01:21;;;;;;;4.85;1.80;;;;;;;29.78;37.62;95687.28;4896215;29;20250;-80
2022/08/01 11:04:09;;;;;;;2.30;2.05;;;;;;;30.00;38.66;95689.28;4897493;29;20233;-80
2022/08/01 11:07:01;;;;;;;3.75;1.80;;;;;;;30.11;37.51;95693.28;4901060;29;20233;-80
2022/08/01 11:09:30;;;;;;;3.10;1.85;;;;;;;30.06;37.58;95683.56;4885725;29;20212;-80
2022/08/01 11:12:03;;;;;;;4.40;1.98;;;;;;;29.94;38.16;95682.47;4890237;29;20218;-80
2022/08/01 11:14:30;;;;;;;2.75;1.60;;;;;;;30.21;37.21;95677.91;4887455;29;20318;-80
2022/08/01 11:17:34;;;;;;;1.80;1.70;;;;;;;30.15;37.58;95675.69;4901667;29;20232;-80
2022/08/01 11:20:11;;;;;;;3.50;1.75;;;;;;;30.42;37.96;95675.59;4906142;29;20261;-80
2022/08/01 11:23:24;;;;;;;4.13;3.72;;;;;;;30.52;37.10;95669.28;4905105;29;20242;-80
2022/08/01 11:26:21;;;;;;;4.68;4.15;;;;;;;30.37;37.51;95669.63;4890885;29;20569;-80
2022/08/01 11:29:19;;;;;;;1.95;1.85;;;;;;;30.27;37.24;95669.84;4891421;29;20207;-80
2022/08/01 11:31:45;;;;;;;3.72;2.00;;;;;;;30.50;36.66;95663.47;4903278;29;20211;-80
2022/08/01 11:34:12;;;;;;;2.65;2.40;;;;;;;30.47;36.51;95664.84;4898055;29;20230;-80
2022/08/01 11:36:38;;;;;;;2.20;2.00;;;;;;;30.36;35.59;95654.78;4892060;29;20227;-80
2022/08/01 11:39:16;;;;;;;1.92;1.60;;;;;;;30.37;36.19;95661.66;4891406;29;20287;-80
2022/08/01 11:41:45;;;;;;;2.22;2.05;;;;;;;30.64;36.38;95660.78;4905504;29;20231;-80